sensor_id;sensor_type;location;lat;lon;timestamp;pressure;altitude;pressure_sealevel;temperature;humidity
44001;BME280;29660;42.892;24.710;2023-04-15T00:01:37;96056.84;;;7.58;100.00
44001;BME280;29660;42.892;24.710;2023-04-15T00:06:59;96200.47;;;8.41;100.00
44001;BME280;29660;42.892;24.710;2023-04-15T00:12:22;96163.63;;;8.20;100.00
44001;BME280;29660;42.892;24.710;2023-04-15T00:17:44;96101.44;;;7.75;100.00
44001;BME280;29660;42.892;24.710;2023-04-15T00:23:07;96208.31;;;8.32;100.00
44001;BME280;29660;42.892;24.710;2023-04-15T00:28:29;96210.47;;;8.30;100.00
44001;BME280;29660;42.892;24.710;2023-04-15T00:33:52;96152.88;;;7.79;100.00
44001;BME280;29660;42.892;24.710;2023-04-15T00:39:16;95872.34;;;5.97;100.00
44001;BME280;29660;42.892;24.710;2023-04-15T00:44:38;96114.09;;;7.64;100.00
44001;BME280;29660;42.892;24.710;2023-04-15T00:50:00;95917.59;;;6.20;100.00
44001;BME280;29660;42.892;24.710;2023-04-15T00:55:23;96140.09;;;7.62;100.00
44001;BME280;29660;42.892;24.710;2023-04-15T01:00:45;96148.59;;;7.45;100.00
44001;BME280;29660;42.892;24.710;2023-04-15T01:06:07;95939.34;;;6.17;100.00
44001;BME280;29660;42.892;24.710;2023-04-15T01:11:31;96140.84;;;7.30;100.00
44001;BME280;29660;42.892;24.710;2023-04-15T01:16:55;95972.94;;;6.21;100.00
44001;BME280;29660;42.892;24.710;2023-04-15T01:22:17;95969.09;;;6.08;100.00
44001;BME280;29660;42.892;24.710;2023-04-15T01:27:40;96175.88;;;7.27;100.00
44001;BME280;29660;42.892;24.710;2023-04-15T01:33:03;96177.84;;;7.40;100.00
44001;BME280;29660;42.892;24.710;2023-04-15T01:38:26;96223.19;;;7.62;100.00
44001;BME280;29660;42.892;24.710;2023-04-15T01:43:48;96153.22;;;6.97;100.00
44001;BME280;29660;42.892;24.710;2023-04-15T01:49:11;95945.13;;;5.47;100.00
44001;BME280;29660;42.892;24.710;2023-04-15T01:54:33;96048.91;;;6.21;100.00
44001;BME280;29660;42.892;24.710;2023-04-15T01:59:55;96167.19;;;7.02;100.00
44001;BME280;29660;42.892;24.710;2023-04-15T02:05:17;96019.97;;;6.05;100.00
44001;BME280;29660;42.892;24.710;2023-04-15T02:10:41;95993.06;;;5.93;100.00
44001;BME280;29660;42.892;24.710;2023-04-15T02:16:14;96048.00;;;6.30;100.00
44001;BME280;29660;42.892;24.710;2023-04-15T02:21:37;95938.72;;;5.53;100.00
44001;BME280;29660;42.892;24.710;2023-04-15T02:27:00;95932.50;;;5.09;100.00
44001;BME280;29660;42.892;24.710;2023-04-15T02:32:23;96085.34;;;5.71;100.00
44001;BME280;29660;42.892;24.710;2023-04-15T02:38:03;95973.38;;;4.88;100.00
44001;BME280;29660;42.892;24.710;2023-04-15T02:43:25;96205.75;;;6.36;100.00
44001;BME280;29660;42.892;24.710;2023-04-15T02:48:48;96030.59;;;5.03;100.00
44001;BME280;29660;42.892;24.710;2023-04-15T02:54:11;96222.09;;;6.14;100.00
44001;BME280;29660;42.892;24.710;2023-04-15T02:59:34;96003.66;;;4.61;100.00
44001;BME280;29660;42.892;24.710;2023-04-15T03:04:56;96246.38;;;6.27;100.00
44001;BME280;29660;42.892;24.710;2023-04-15T03:10:20;95989.34;;;4.67;100.00
44001;BME280;29660;42.892;24.710;2023-04-15T03:15:42;96053.09;;;5.00;100.00
44001;BME280;29660;42.892;24.710;2023-04-15T03:21:04;96236.09;;;6.20;100.00
44001;BME280;29660;42.892;24.710;2023-04-15T03:26:30;95984.72;;;4.44;100.00
44001;BME280;29660;42.892;24.710;2023-04-15T03:31:56;96061.84;;;4.96;100.00
44001;BME280;29660;42.892;24.710;2023-04-15T03:37:37;96053.59;;;5.02;100.00
44001;BME280;29660;42.892;24.710;2023-04-15T03:42:59;96029.97;;;4.77;100.00
44001;BME280;29660;42.892;24.710;2023-04-15T03:48:21;96026.91;;;4.54;100.00
44001;BME280;29660;42.892;24.710;2023-04-15T03:53:43;96260.34;;;5.98;100.00
44001;BME280;29660;42.892;24.710;2023-04-15T03:59:05;95766.28;;;2.67;100.00
44001;BME280;29660;42.892;24.710;2023-04-15T04:04:27;96050.75;;;4.34;100.00
44001;BME280;29660;42.892;24.710;2023-04-15T04:09:50;96306.44;;;5.87;100.00
44001;BME280;29660;42.892;24.710;2023-04-15T04:15:12;96094.00;;;4.43;100.00
44001;BME280;29660;42.892;24.710;2023-04-15T04:20:34;96359.53;;;6.11;100.00
44001;BME280;29660;42.892;24.710;2023-04-15T04:25:56;96041.13;;;3.88;100.00
44001;BME280;29660;42.892;24.710;2023-04-15T04:31:19;96010.84;;;3.60;100.00
44001;BME280;29660;42.892;24.710;2023-04-15T04:36:41;96321.16;;;5.49;100.00
44001;BME280;29660;42.892;24.710;2023-04-15T04:42:03;96331.47;;;5.45;100.00
44001;BME280;29660;42.892;24.710;2023-04-15T04:47:25;96044.59;;;3.53;100.00
44001;BME280;29660;42.892;24.710;2023-04-15T04:52:47;96246.78;;;4.90;100.00
44001;BME280;29660;42.892;24.710;2023-04-15T04:58:09;95882.88;;;2.83;100.00
44001;BME280;29660;42.892;24.710;2023-04-15T05:03:32;96103.75;;;4.53;100.00
44001;BME280;29660;42.892;24.710;2023-04-15T05:08:54;96303.72;;;6.02;100.00
44001;BME280;29660;42.892;24.710;2023-04-15T05:14:17;96224.66;;;5.85;100.00
44001;BME280;29660;42.892;24.710;2023-04-15T05:19:39;96404.97;;;7.36;100.00
44001;BME280;29660;42.892;24.710;2023-04-15T05:25:02;96366.25;;;7.35;100.00
44001;BME280;29660;42.892;24.710;2023-04-15T05:30:24;96215.16;;;6.53;100.00
44001;BME280;29660;42.892;24.710;2023-04-15T05:35:46;96354.84;;;7.58;100.00
44001;BME280;29660;42.892;24.710;2023-04-15T05:41:08;96100.50;;;6.23;100.00
44001;BME280;29660;42.892;24.710;2023-04-15T05:46:30;96277.25;;;7.67;100.00
44001;BME280;29660;42.892;24.710;2023-04-15T05:51:52;96431.72;;;8.92;100.00
44001;BME280;29660;42.892;24.710;2023-04-15T05:57:14;96182.84;;;7.60;100.00
44001;BME280;29660;42.892;24.710;2023-04-15T06:02:37;96428.81;;;9.40;100.00
44001;BME280;29660;42.892;24.710;2023-04-15T06:07:59;96200.16;;;8.09;100.00
44001;BME280;29660;42.892;24.710;2023-04-15T06:13:22;96236.06;;;8.58;100.00
44001;BME280;29660;42.892;24.710;2023-04-15T06:18:44;96426.88;;;10.01;100.00
44001;BME280;29660;42.892;24.710;2023-04-15T06:24:06;96418.13;;;10.28;100.00
44001;BME280;29660;42.892;24.710;2023-04-15T06:29:28;96416.97;;;10.56;100.00
44001;BME280;29660;42.892;24.710;2023-04-15T06:34:51;96178.47;;;9.37;100.00
44001;BME280;29660;42.892;24.710;2023-04-15T06:40:13;96193.53;;;9.77;93.75
44001;BME280;29660;42.892;24.710;2023-04-15T06:45:35;96353.06;;;11.19;93.94
44001;BME280;29660;42.892;24.710;2023-04-15T06:50:58;96105.50;;;9.96;82.66
44001;BME280;29660;42.892;24.710;2023-04-15T06:56:38;96187.38;;;10.89;82.24
44001;BME280;29660;42.892;24.710;2023-04-15T07:02:00;96396.44;;;12.61;78.57
44001;BME280;29660;42.892;24.710;2023-04-15T07:07:22;96115.25;;;11.20;67.00
44001;BME280;29660;42.892;24.710;2023-04-15T07:12:45;96387.78;;;13.25;62.96
44001;BME280;29660;42.892;24.710;2023-04-15T07:18:07;96409.03;;;13.77;72.06
44001;BME280;29660;42.892;24.710;2023-04-15T07:23:30;96226.22;;;13.03;65.33
44001;BME280;29660;42.892;24.710;2023-04-15T07:28:52;96143.91;;;12.53;51.61
44001;BME280;29660;42.892;24.710;2023-04-15T07:34:14;96407.34;;;14.32;58.78
44001;BME280;29660;42.892;24.710;2023-04-15T07:39:37;96421.81;;;14.90;55.70
44001;BME280;29660;42.892;24.710;2023-04-15T07:44:59;96365.19;;;14.62;52.59
44001;BME280;29660;42.892;24.710;2023-04-15T07:50:22;96426.50;;;14.93;54.66
44001;BME280;29660;42.892;24.710;2023-04-15T07:55:45;96266.06;;;14.23;57.13
44001;BME280;29660;42.892;24.710;2023-04-15T08:01:07;96283.25;;;14.64;47.89
44001;BME280;29660;42.892;24.710;2023-04-15T08:06:29;96350.25;;;15.52;46.58
44001;BME280;29660;42.892;24.710;2023-04-15T08:11:52;96348.53;;;15.68;45.22
44001;BME280;29660;42.892;24.710;2023-04-15T08:17:14;96403.19;;;16.45;44.99
44001;BME280;29660;42.892;24.710;2023-04-15T08:22:36;96181.22;;;15.22;45.46
44001;BME280;29660;42.892;24.710;2023-04-15T08:28:03;96163.06;;;15.31;45.01
44001;BME280;29660;42.892;24.710;2023-04-15T08:33:26;96409.53;;;17.18;44.65
44001;BME280;29660;42.892;24.710;2023-04-15T08:38:49;96404.25;;;17.37;42.90
44001;BME280;29660;42.892;24.710;2023-04-15T08:44:13;96374.06;;;17.32;43.25
44001;BME280;29660;42.892;24.710;2023-04-15T08:49:38;96384.06;;;17.31;41.57
44001;BME280;29660;42.892;24.710;2023-04-15T08:55:02;96403.88;;;17.23;43.50
44001;BME280;29660;42.892;24.710;2023-04-15T09:00:44;96321.97;;;16.56;41.97
44001;BME280;29660;42.892;24.710;2023-04-15T09:06:25;96159.44;;;15.52;43.69
44001;BME280;29660;42.892;24.710;2023-04-15T09:11:48;96340.31;;;17.06;42.58
44001;BME280;29660;42.892;24.710;2023-04-15T09:17:10;96354.00;;;17.29;40.52
44001;BME280;29660;42.892;24.710;2023-04-15T09:22:33;96152.91;;;15.89;40.39
44001;BME280;29660;42.892;24.710;2023-04-15T09:27:59;96377.47;;;17.60;41.48
44001;BME280;29660;42.892;24.710;2023-04-15T09:33:23;96164.84;;;16.76;39.86
44001;BME280;29660;42.892;24.710;2023-04-15T09:38:59;96138.16;;;16.71;39.37
44001;BME280;29660;42.892;24.710;2023-04-15T09:44:25;96172.31;;;17.14;38.94
44001;BME280;29660;42.892;24.710;2023-04-15T09:49:58;96121.97;;;17.18;38.62
44001;BME280;29660;42.892;24.710;2023-04-15T09:55:20;96168.22;;;17.56;38.90
44001;BME280;29660;42.892;24.710;2023-04-15T10:00:44;96147.69;;;17.67;37.82
44001;BME280;29660;42.892;24.710;2023-04-15T10:06:08;96280.53;;;18.34;37.89
44001;BME280;29660;42.892;24.710;2023-04-15T10:11:31;96314.16;;;18.56;38.95
44001;BME280;29660;42.892;24.710;2023-04-15T10:16:55;96347.88;;;18.27;39.17
44001;BME280;29660;42.892;24.710;2023-04-15T10:22:22;96345.63;;;18.29;40.16
44001;BME280;29660;42.892;24.710;2023-04-15T10:27:45;96140.81;;;17.34;39.41
44001;BME280;29660;42.892;24.710;2023-04-15T10:33:10;96374.94;;;19.44;39.37
44001;BME280;29660;42.892;24.710;2023-04-15T10:38:40;96127.00;;;18.10;38.02
44001;BME280;29660;42.892;24.710;2023-04-15T10:44:04;95941.00;;;16.97;37.34
44001;BME280;29660;42.892;24.710;2023-04-15T10:49:26;96123.94;;;18.11;37.01
44001;BME280;29660;42.892;24.710;2023-04-15T10:54:48;96143.19;;;18.10;37.81
44001;BME280;29660;42.892;24.710;2023-04-15T11:00:15;96092.34;;;17.73;37.86
44001;BME280;29660;42.892;24.710;2023-04-15T11:11:02;96253.16;;;18.94;36.88
44001;BME280;29660;42.892;24.710;2023-04-15T11:16:25;96041.81;;;17.51;38.44
44001;BME280;29660;42.892;24.710;2023-04-15T11:21:47;96078.88;;;18.12;37.35
44001;BME280;29660;42.892;24.710;2023-04-15T11:27:22;96329.44;;;19.72;36.33
44001;BME280;29660;42.892;24.710;2023-04-15T11:32:44;96366.78;;;19.63;36.42
44001;BME280;29660;42.892;24.710;2023-04-15T11:38:11;96094.53;;;18.06;36.79
44001;BME280;29660;42.892;24.710;2023-04-15T11:43:34;96367.81;;;20.01;36.71
44001;BME280;29660;42.892;24.710;2023-04-15T11:48:57;96101.84;;;18.25;37.28
44001;BME280;29660;42.892;24.710;2023-04-15T11:54:19;96084.31;;;18.38;37.92
44001;BME280;29660;42.892;24.710;2023-04-15T11:59:42;96287.69;;;19.47;37.38
44001;BME280;29660;42.892;24.710;2023-04-15T12:05:07;96291.09;;;19.21;37.22
44001;BME280;29660;42.892;24.710;2023-04-15T12:10:30;96292.59;;;19.18;37.18
44001;BME280;29660;42.892;24.710;2023-04-15T12:15:54;96269.72;;;19.35;37.42
44001;BME280;29660;42.892;24.710;2023-04-15T12:21:23;95848.34;;;16.79;36.64
44001;BME280;29660;42.892;24.710;2023-04-15T12:26:51;96082.13;;;18.44;37.78
44001;BME280;29660;42.892;24.710;2023-04-15T12:32:18;96048.00;;;18.32;38.26
44001;BME280;29660;42.892;24.710;2023-04-15T12:37:43;95873.41;;;17.22;37.32
44001;BME280;29660;42.892;24.710;2023-04-15T12:43:05;96140.47;;;18.95;37.40
44001;BME280;29660;42.892;24.710;2023-04-15T12:48:27;96317.16;;;20.28;37.89
44001;BME280;29660;42.892;24.710;2023-04-15T12:53:49;96259.06;;;19.95;37.39
44001;BME280;29660;42.892;24.710;2023-04-15T12:59:12;96055.59;;;18.50;37.46
44001;BME280;29660;42.892;24.710;2023-04-15T13:04:34;96048.91;;;18.67;36.69
44001;BME280;29660;42.892;24.710;2023-04-15T13:09:57;96265.19;;;19.43;36.67
44001;BME280;29660;42.892;24.710;2023-04-15T13:15:19;96272.16;;;19.44;37.84
44001;BME280;29660;42.892;24.710;2023-04-15T13:20:44;96086.41;;;18.26;37.66
44001;BME280;29660;42.892;24.710;2023-04-15T13:26:06;96181.72;;;18.92;37.39
44001;BME280;29660;42.892;24.710;2023-04-15T13:31:29;96299.91;;;19.41;39.30
44001;BME280;29660;42.892;24.710;2023-04-15T13:36:51;96080.84;;;17.96;39.50
44001;BME280;29660;42.892;24.710;2023-04-15T13:42:13;96289.84;;;19.37;38.94
44001;BME280;29660;42.892;24.710;2023-04-15T13:47:35;96320.66;;;19.56;39.35
44001;BME280;29660;42.892;24.710;2023-04-15T13:52:57;96205.38;;;18.75;39.27
44001;BME280;29660;42.892;24.710;2023-04-15T13:58:20;96332.69;;;19.58;38.65
44001;BME280;29660;42.892;24.710;2023-04-15T14:03:42;96294.16;;;19.19;39.38
44001;BME280;29660;42.892;24.710;2023-04-15T14:09:04;96073.72;;;17.68;39.29
44001;BME280;29660;42.892;24.710;2023-04-15T14:14:26;96055.94;;;17.63;39.20
44001;BME280;29660;42.892;24.710;2023-04-15T14:20:07;96292.88;;;19.13;39.17
44001;BME280;29660;42.892;24.710;2023-04-15T14:25:30;96320.72;;;19.36;40.21
44001;BME280;29660;42.892;24.710;2023-04-15T14:30:54;96107.41;;;17.94;39.61
44001;BME280;29660;42.892;24.710;2023-04-15T14:36:17;96349.06;;;19.23;39.93
44001;BME280;29660;42.892;24.710;2023-04-15T14:41:39;96115.03;;;17.53;40.27
44001;BME280;29660;42.892;24.710;2023-04-15T14:47:01;96281.72;;;18.72;39.65
44001;BME280;29660;42.892;24.710;2023-04-15T14:52:24;96293.75;;;18.75;39.65
44001;BME280;29660;42.892;24.710;2023-04-15T14:57:47;96347.81;;;18.98;40.47
44001;BME280;29660;42.892;24.710;2023-04-15T15:03:10;96322.50;;;18.67;40.64
44001;BME280;29660;42.892;24.710;2023-04-15T15:08:35;96081.97;;;16.85;41.07
44001;BME280;29660;42.892;24.710;2023-04-15T15:13:58;96113.25;;;16.90;41.20
44001;BME280;29660;42.892;24.710;2023-04-15T15:19:20;96301.31;;;18.14;41.67
44001;BME280;29660;42.892;24.710;2023-04-15T15:24:42;96215.41;;;17.46;42.06
44001;BME280;29660;42.892;24.710;2023-04-15T15:30:05;96060.06;;;16.24;42.79
44001;BME280;29660;42.892;24.710;2023-04-15T15:35:27;96289.41;;;17.64;41.76
44001;BME280;29660;42.892;24.710;2023-04-15T15:40:49;96363.41;;;17.99;42.47
44001;BME280;29660;42.892;24.710;2023-04-15T15:46:13;96293.31;;;17.35;44.04
44001;BME280;29660;42.892;24.710;2023-04-15T15:51:35;96353.16;;;17.73;43.76
44001;BME280;29660;42.892;24.710;2023-04-15T15:56:57;96284.25;;;17.12;43.44
44001;BME280;29660;42.892;24.710;2023-04-15T16:02:19;96379.25;;;17.53;45.11
44001;BME280;29660;42.892;24.710;2023-04-15T16:07:55;96334.66;;;17.11;45.55
44001;BME280;29660;42.892;24.710;2023-04-15T16:13:17;96047.34;;;15.24;46.88
44001;BME280;29660;42.892;24.710;2023-04-15T16:18:40;96167.47;;;15.88;46.74
44001;BME280;29660;42.892;24.710;2023-04-15T16:24:02;96336.69;;;16.86;47.14
44001;BME280;29660;42.892;24.710;2023-04-15T16:29:24;96111.50;;;15.26;46.90
44001;BME280;29660;42.892;24.710;2023-04-15T16:34:47;96133.75;;;15.26;47.81
44001;BME280;29660;42.892;24.710;2023-04-15T16:40:09;96137.34;;;15.18;48.81
44001;BME280;29660;42.892;24.710;2023-04-15T16:45:32;96143.41;;;14.90;49.84
44001;BME280;29660;42.892;24.710;2023-04-15T16:50:54;96282.09;;;15.56;51.76
44001;BME280;29660;42.892;24.710;2023-04-15T16:56:16;96143.53;;;14.48;52.77
44001;BME280;29660;42.892;24.710;2023-04-15T17:01:38;96357.25;;;15.65;53.17
44001;BME280;29660;42.892;24.710;2023-04-15T17:07:00;96130.34;;;13.77;55.72
44001;BME280;29660;42.892;24.710;2023-04-15T17:12:23;96373.84;;;15.21;55.73
44001;BME280;29660;42.892;24.710;2023-04-15T17:17:45;96357.44;;;15.02;55.79
44001;BME280;29660;42.892;24.710;2023-04-15T17:23:07;96117.78;;;13.27;58.89
44001;BME280;29660;42.892;24.710;2023-04-15T17:28:29;96162.44;;;13.35;63.10
44001;BME280;29660;42.892;24.710;2023-04-15T17:33:51;96386.97;;;14.39;64.97
44001;BME280;29660;42.892;24.710;2023-04-15T17:39:18;96451.66;;;14.67;66.63
44001;BME280;29660;42.892;24.710;2023-04-15T17:44:41;96445.88;;;14.57;67.75
44001;BME280;29660;42.892;24.710;2023-04-15T17:50:04;96165.19;;;12.50;69.89
44001;BME280;29660;42.892;24.710;2023-04-15T17:55:26;96447.72;;;14.06;70.66
44001;BME280;29660;42.892;24.710;2023-04-15T18:00:48;96413.19;;;13.66;70.35
44001;BME280;29660;42.892;24.710;2023-04-15T18:06:10;96230.66;;;12.26;72.31
44001;BME280;29660;42.892;24.710;2023-04-15T18:11:33;96339.19;;;12.62;73.79
44001;BME280;29660;42.892;24.710;2023-04-15T18:16:55;96275.28;;;12.09;76.21
44001;BME280;29660;42.892;24.710;2023-04-15T18:22:17;96204.16;;;11.38;76.23
44001;BME280;29660;42.892;24.710;2023-04-15T18:27:39;96211.16;;;11.17;77.67
44001;BME280;29660;42.892;24.710;2023-04-15T18:33:01;96230.44;;;11.05;79.90
44001;BME280;29660;42.892;24.710;2023-04-15T18:38:24;96509.13;;;12.77;81.25
44001;BME280;29660;42.892;24.710;2023-04-15T18:43:46;96215.66;;;10.68;80.40
44001;BME280;29660;42.892;24.710;2023-04-15T18:49:10;96473.59;;;12.19;83.13
44001;BME280;29660;42.892;24.710;2023-04-15T18:54:32;96537.97;;;12.32;87.02
44001;BME280;29660;42.892;24.710;2023-04-15T18:59:54;96211.81;;;10.06;84.80
44001;BME280;29660;42.892;24.710;2023-04-15T19:05:17;96211.19;;;9.87;87.06
44001;BME280;29660;42.892;24.710;2023-04-15T19:10:57;96300.75;;;10.19;89.21
44001;BME280;29660;42.892;24.710;2023-04-15T19:16:19;96213.72;;;9.42;89.19
44001;BME280;29660;42.892;24.710;2023-04-15T19:21:42;96214.44;;;9.34;88.42
44001;BME280;29660;42.892;24.710;2023-04-15T19:27:04;96564.34;;;11.12;91.84
44001;BME280;29660;42.892;24.710;2023-04-15T19:32:26;96520.19;;;11.06;90.34
44001;BME280;29660;42.892;24.710;2023-04-15T19:37:48;96511.16;;;10.79;93.29
44001;BME280;29660;42.892;24.710;2023-04-15T19:43:10;96519.56;;;10.73;94.74
44001;BME280;29660;42.892;24.710;2023-04-15T19:48:32;96235.91;;;8.69;95.10
44001;BME280;29660;42.892;24.710;2023-04-15T19:53:55;96535.78;;;10.63;95.02
44001;BME280;29660;42.892;24.710;2023-04-15T19:59:17;96474.84;;;10.01;98.52
44001;BME280;29660;42.892;24.710;2023-04-15T20:04:39;96248.03;;;8.42;94.51
44001;BME280;29660;42.892;24.710;2023-04-15T20:10:02;96212.38;;;8.10;99.38
44001;BME280;29660;42.892;24.710;2023-04-15T20:15:24;96483.28;;;9.62;100.00
44001;BME280;29660;42.892;24.710;2023-04-15T20:20:46;96554.66;;;9.92;98.16
44001;BME280;29660;42.892;24.710;2023-04-15T20:26:09;96539.19;;;9.94;99.52
44001;BME280;29660;42.892;24.710;2023-04-15T20:31:31;96263.41;;;8.07;100.00
44001;BME280;29660;42.892;24.710;2023-04-15T20:36:54;96281.88;;;8.18;100.00
44001;BME280;29660;42.892;24.710;2023-04-15T20:42:35;96499.00;;;9.44;100.00
44001;BME280;29660;42.892;24.710;2023-04-15T20:47:57;96251.44;;;7.72;100.00
44001;BME280;29660;42.892;24.710;2023-04-15T20:53:19;96251.94;;;7.55;100.00
44001;BME280;29660;42.892;24.710;2023-04-15T20:58:42;96233.13;;;7.52;100.00
44001;BME280;29660;42.892;24.710;2023-04-15T21:04:04;96265.56;;;7.68;100.00
44001;BME280;29660;42.892;24.710;2023-04-15T21:09:26;96430.34;;;8.76;100.00
44001;BME280;29660;42.892;24.710;2023-04-15T21:15:07;96461.81;;;8.88;100.00
44001;BME280;29660;42.892;24.710;2023-04-15T21:20:29;96273.66;;;7.57;100.00
44001;BME280;29660;42.892;24.710;2023-04-15T21:25:52;96514.44;;;9.09;100.00
44001;BME280;29660;42.892;24.710;2023-04-15T21:31:14;96164.06;;;6.76;100.00
44001;BME280;29660;42.892;24.710;2023-04-15T21:36:37;96538.03;;;8.97;100.00
44001;BME280;29660;42.892;24.710;2023-04-15T21:41:59;96504.16;;;8.84;100.00
44001;BME280;29660;42.892;24.710;2023-04-15T21:47:22;96245.03;;;7.11;100.00
44001;BME280;29660;42.892;24.710;2023-04-15T21:52:44;96501.09;;;8.77;100.00
44001;BME280;29660;42.892;24.710;2023-04-15T21:58:06;96237.13;;;7.06;100.00
44001;BME280;29660;42.892;24.710;2023-04-15T22:03:32;96415.16;;;8.20;100.00
44001;BME280;29660;42.892;24.710;2023-04-15T22:08:55;96385.03;;;7.86;100.00
44001;BME280;29660;42.892;24.710;2023-04-15T22:14:18;96350.09;;;7.55;100.00
44001;BME280;29660;42.892;24.710;2023-04-15T22:19:59;96472.47;;;8.26;100.00
44001;BME280;29660;42.892;24.710;2023-04-15T22:25:21;96490.72;;;8.08;100.00
44001;BME280;29660;42.892;24.710;2023-04-15T22:30:43;96222.63;;;6.46;100.00
44001;BME280;29660;42.892;24.710;2023-04-15T22:36:05;96178.13;;;6.19;100.00
44001;BME280;29660;42.892;24.710;2023-04-15T22:41:27;96227.59;;;6.52;100.00
44001;BME280;29660;42.892;24.710;2023-04-15T22:46:50;96246.00;;;6.68;100.00
44001;BME280;29660;42.892;24.710;2023-04-15T22:52:12;96516.97;;;8.39;100.00
44001;BME280;29660;42.892;24.710;2023-04-15T22:57:44;96487.66;;;7.96;100.00
44001;BME280;29660;42.892;24.710;2023-04-15T23:03:06;96528.13;;;8.12;100.00
44001;BME280;29660;42.892;24.710;2023-04-15T23:08:28;96203.75;;;6.23;100.00
44001;BME280;29660;42.892;24.710;2023-04-15T23:14:09;96501.47;;;7.98;100.00
44001;BME280;29660;42.892;24.710;2023-04-15T23:19:31;96305.53;;;6.80;100.00
44001;BME280;29660;42.892;24.710;2023-04-15T23:24:53;96226.50;;;6.24;100.00
44001;BME280;29660;42.892;24.710;2023-04-15T23:30:15;96337.09;;;6.77;100.00
44001;BME280;29660;42.892;24.710;2023-04-15T23:35:38;96507.66;;;7.88;100.00
44001;BME280;29660;42.892;24.710;2023-04-15T23:41:00;96213.75;;;5.97;100.00
44001;BME280;29660;42.892;24.710;2023-04-15T23:46:22;96441.56;;;7.34;100.00
44001;BME280;29660;42.892;24.710;2023-04-15T23:51:44;96461.88;;;7.49;100.00
44001;BME280;29660;42.892;24.710;2023-04-15T23:57:06;96452.69;;;7.36;100.00
